• Join FlightAware (Why Join?)
  • Login
  • US Flag GB Flag 
19:33 EST


 

Airport Tracker/Info


-or-


 

Live Flight TrackerFlight Track Log ✈ USC105 ✈ 09-May-2013 ✈ KBKL - KYIP

Flight Track Log - Related Links

Times and Time Zones

All times are in EDT time to prevent confusion due to time zone crossing. See the USC105 flight status page for this flight to view local times or setup timezone preferences in your user account.

Time Position Orientation Groundspeed Altitude Reporting Facility
EDT Latitude Longitude Course Direction KTS MPH feet Rate Location/Type
23:06 41.5525 -81.6764 350° North 132 152 2,000  Level Cleveland Center
23:07 41.5897 -81.6936 341° North 139 160 2,900 942 Climbing Cleveland Center
23:08 41.6144 -81.7303 312° West 137 158 3,900 934 Climbing Cleveland Center
23:09 41.6306 -81.7778 294° West 136 157 4,800 893 Climbing Cleveland Center
23:10 41.6469 -81.8197 298° West 135 155 5,700 893 Climbing Cleveland Center
23:11 41.4118 -81.9813 246° West  Level FlightAware Approximate
23:11 41.6650 -81.8644 298° West 131 151 6,600  Level Cleveland Center
23:12 41.6814 -81.9067 297° West 133 153 7,400 694 Climbing Cleveland Center
23:13 41.6953 -81.9597 289° West 148 170 8,000 347 Climbing Cleveland Center
23:14 41.7175 -82.0158 298° West 182 209 8,100 50 Climbing Cleveland Center
23:15 41.7417 -82.0775 298° West 181 208 8,100  Level Cleveland Center
23:16 41.7617 -82.1392 294° West 184 212 8,100  Level Cleveland Center
23:17 41.7839 -82.2039 295° West 184 212 8,100  Level Cleveland Center
23:18 41.8058 -82.2628 297° West 184 212 8,100  Level Cleveland Center
23:19 41.8142 -82.2769 308° West 184 212 8,100  Level Cleveland Center
23:19 41.8300 -82.3303 292° West 185 213 8,100  Level Cleveland Center
23:20 41.8539 -82.3922 297° West 186 214 8,100  Level Cleveland Center
23:21 41.8739 -82.4517 294° West 187 215 8,100  Level Cleveland Center
23:22 41.8917 -82.5106 292° West 185 213 8,100  Level Cleveland Center
23:23 41.9136 -82.5700 296° West 185 213 8,100  Level Cleveland Center
23:24 41.9375 -82.6347 296° West 189 217 8,100  Level Cleveland Center
23:25 41.9592 -82.6969 295° West 188 216 8,100  Level Cleveland Center
23:26 41.9808 -82.7647 293° West 189 217 8,100  Level Cleveland Center
23:27 42.0006 -82.8214 295° West 190 219 8,100  Level Cleveland Center
23:28 42.0222 -82.8892 293° West 190 219 8,100 -49 Level Cleveland Center
23:29 42.0461 -82.9514 297° West 188 216 8,000 -397 Descending Cleveland Center
23:30 42.0886 -83.0006 319° Northwest 211 243 7,300 -744 Descending Cleveland Center
23:31 42.1314 -83.0583 315° West 212 244 6,500 -639 Descending Cleveland Center
23:32 42.1675 -83.1158 310° West 201 231 6,000 -545 Descending Cleveland Center
23:33 42.1953 -83.1814 300° West 203 234 5,400 -425 Descending Cleveland Center
23:34 42.2228 -83.2525 298° West 185 213 5,100 -135 Descending Cleveland Center
23:35 42.2486 -83.3125 300° West 171 197 5,100 -135 Level Cleveland Center
23:37 42.2719 -83.3753 297° West 162 186 4,800 -563 Descending Cleveland Center
23:38 42.3125 -83.4219 320° Northwest 201 231 3,900 -1,091 Descending Cleveland Center
23:39 42.2969 -83.4606 241° Southwest 198 228 2,600 -1,091 Descending Cleveland Center
23:40 42.2606 -83.5011 220° Southwest 142 163 1,700 -885 Descending Cleveland Center
23:42 42.2393 -83.5310 226° Southwest  Level Estimated